Time;durP1;ratioP1;P1;durP2;ratioP2;P2;SDS_P1;SDS_P2;PMS_P1;PMS_P2;Temp;Humidity;BMP_temperature;BMP_pressure;BME280_temperature;BME280_humidity;BME280_pressure;Samples;Min_cycle;Max_cycle;Signal;HPM_P1;HPM_P2
2024/04/16 00:01:18;;;;;;;0.28;0.10;;;;;;;;;;5391393;26;20027;-79
2024/04/16 00:03:44;;;;;;;0.10;0.10;;;;;;;;;;5411191;26;20049;-79
2024/04/16 00:06:11;;;;;;;0.20;0.10;;;;;;;;;;5420447;26;20011;-78
2024/04/16 00:08:37;;;;;;;1.65;0.43;;;;;;;;;;5420644;26;20015;-78
2024/04/16 00:11:03;;;;;;;0.22;0.10;;;;;;;;;;5416290;26;19992;-78
2024/04/16 00:13:30;;;;;;;0.43;0.10;;;;;;;;;;5416360;26;20323;-78
2024/04/16 00:15:56;;;;;;;0.20;0.10;;;;;;;;;;5384826;26;20445;-78
2024/04/16 00:18:22;;;;;;;0.08;0.08;;;;;;;;;;5403503;26;20024;-78
2024/04/16 00:20:49;;;;;;;1.30;0.10;;;;;;;;;;5416928;26;20468;-78
2024/04/16 00:23:15;;;;;;;1.55;0.15;;;;;;;;;;5391014;26;20010;-78
2024/04/16 00:25:41;;;;;;;0.13;0.10;;;;;;;;;;5414841;26;20000;-78
2024/04/16 00:28:08;;;;;;;0.85;0.10;;;;;;;;;;5386450;26;20000;-78
2024/04/16 00:30:34;;;;;;;0.38;0.10;;;;;;;;;;5397275;26;20022;-79
2024/04/16 00:33:00;;;;;;;2.05;0.05;;;;;;;;;;5411775;26;20013;-78
2024/04/16 00:35:26;;;;;;;0.10;0.10;;;;;;;;;;5416972;26;19991;-79
2024/04/16 00:37:53;;;;;;;1.33;0.30;;;;;;;;;;5391239;26;20000;-79
2024/04/16 00:40:19;;;;;;;1.45;0.20;;;;;;;;;;5434211;26;20011;-80
2024/04/16 00:42:49;;;;;;;0.20;0.00;;;;;;;;;;5405493;26;20061;-79
2024/04/16 00:45:15;;;;;;;1.48;0.10;;;;;;;;;;5422559;26;20010;-78
2024/04/16 00:47:41;;;;;;;0.13;0.10;;;;;;;;;;5426368;26;19988;-78
2024/04/16 00:50:08;;;;;;;0.28;0.10;;;;;;;;;;5403585;26;20263;-78
2024/04/16 00:52:35;;;;;;;0.00;0.00;;;;;;;;;;5411064;26;20007;-79
2024/04/16 00:55:01;;;;;;;0.28;0.10;;;;;;;;;;5417502;26;20063;-79
2024/04/16 00:57:27;;;;;;;0.32;0.10;;;;;;;;;;5409670;26;19996;-79
2024/04/16 00:59:55;;;;;;;0.00;0.00;;;;;;;;;;5401213;26;20047;-78
2024/04/16 01:02:21;;;;;;;0.82;0.10;;;;;;;;;;5424264;26;20003;-78
2024/04/16 01:04:48;;;;;;;1.83;1.15;;;;;;;;;;5427190;26;20316;-78
2024/04/16 01:07:14;;;;;;;1.30;0.35;;;;;;;;;;5428969;26;20000;-77
2024/04/16 01:09:40;;;;;;;1.38;0.30;;;;;;;;;;5421204;26;20004;-77
2024/04/16 01:12:07;;;;;;;0.00;0.00;;;;;;;;;;5386912;26;20024;-78
2024/04/16 01:14:33;;;;;;;0.10;0.00;;;;;;;;;;5406120;26;20080;-79
2024/04/16 01:16:59;;;;;;;1.08;0.13;;;;;;;;;;5413056;26;20014;-78
2024/04/16 01:19:25;;;;;;;0.50;0.10;;;;;;;;;;5411051;26;20008;-78
2024/04/16 01:21:51;;;;;;;0.25;0.20;;;;;;;;;;5403937;26;20015;-79
2024/04/16 01:24:17;;;;;;;3.88;0.28;;;;;;;;;;5415522;26;20011;-78
2024/04/16 01:26:43;;;;;;;0.25;0.20;;;;;;;;;;5403333;26;20010;-78
2024/04/16 01:29:10;;;;;;;0.63;0.20;;;;;;;;;;5418917;26;20015;-78
2024/04/16 01:31:36;;;;;;;1.75;0.40;;;;;;;;;;5412898;26;20000;-77
2024/04/16 01:34:02;;;;;;;1.85;0.20;;;;;;;;;;5412803;26;20072;-77
2024/04/16 01:36:28;;;;;;;1.30;0.55;;;;;;;;;;5409014;26;20004;-78
2024/04/16 01:38:55;;;;;;;0.45;0.20;;;;;;;;;;5407066;26;20004;-78
2024/04/16 01:41:21;;;;;;;0.13;0.10;;;;;;;;;;5415687;26;20011;-78
2024/04/16 01:43:47;;;;;;;0.10;0.00;;;;;;;;;;5415039;26;20081;-79
2024/04/16 01:46:13;;;;;;;0.45;0.10;;;;;;;;;;5415629;26;20000;-79
2024/04/16 01:48:39;;;;;;;0.10;0.10;;;;;;;;;;5415336;26;20081;-79
2024/04/16 01:51:05;;;;;;;0.00;0.00;;;;;;;;;;5406320;26;20008;-79
2024/04/16 01:53:31;;;;;;;0.00;0.00;;;;;;;;;;5407783;26;20077;-78
2024/04/16 01:56:00;;;;;;;0.05;0.00;;;;;;;;;;5411367;26;20012;-79
2024/04/16 01:58:26;;;;;;;0.13;0.10;;;;;;;;;;5415490;26;20000;-78
2024/04/16 02:00:59;;;;;;;0.38;0.17;;;;;;;;;;5398721;26;20073;-77
2024/04/16 02:03:25;;;;;;;0.47;0.20;;;;;;;;;;5397315;26;20004;-78
2024/04/16 02:05:51;;;;;;;0.95;0.10;;;;;;;;;;5403855;26;20000;-78
2024/04/16 02:08:18;;;;;;;0.28;0.10;;;;;;;;;;5414763;26;20075;-78
2024/04/16 02:11:00;;;;;;;1.92;0.35;;;;;;;;;;5423359;26;19999;-79
2024/04/16 02:13:26;;;;;;;5.35;0.20;;;;;;;;;;5424478;26;20423;-77
2024/04/16 02:15:53;;;;;;;1.55;0.20;;;;;;;;;;5417549;26;20007;-78
2024/04/16 02:18:19;;;;;;;1.95;0.25;;;;;;;;;;5409437;26;20410;-78
2024/04/16 02:20:45;;;;;;;1.08;0.20;;;;;;;;;;5415378;26;20318;-77
2024/04/16 02:23:11;;;;;;;0.52;0.22;;;;;;;;;;5410615;26;19997;-78
2024/04/16 02:25:38;;;;;;;0.93;0.10;;;;;;;;;;5396044;26;20127;-78
2024/04/16 02:28:04;;;;;;;0.80;0.10;;;;;;;;;;5411998;26;20028;-78
2024/04/16 02:30:31;;;;;;;0.80;0.20;;;;;;;;;;5414361;26;19995;-78
2024/04/16 02:32:57;;;;;;;0.57;0.10;;;;;;;;;;5384365;26;20008;-77
2024/04/16 02:35:24;;;;;;;1.55;0.30;;;;;;;;;;5405878;26;19999;-78
2024/04/16 02:37:50;;;;;;;2.40;0.10;;;;;;;;;;5418255;26;20003;-78
2024/04/16 02:40:16;;;;;;;0.10;0.10;;;;;;;;;;5417339;26;20079;-78
2024/04/16 02:42:42;;;;;;;0.20;0.13;;;;;;;;;;5416506;26;20015;-78
2024/04/16 02:45:08;;;;;;;0.43;0.28;;;;;;;;;;5417811;26;20039;-78
2024/04/16 02:47:34;;;;;;;0.77;0.20;;;;;;;;;;5418192;26;20050;-78
2024/04/16 02:50:00;;;;;;;1.63;0.30;;;;;;;;;;5414728;26;20406;-78
2024/04/16 02:52:27;;;;;;;1.55;0.30;;;;;;;;;;5414206;26;20003;-79
2024/04/16 02:54:55;;;;;;;1.73;0.30;;;;;;;;;;5407058;26;20004;-79
2024/04/16 02:57:22;;;;;;;1.58;0.47;;;;;;;;;;5401100;26;19999;-78
2024/04/16 02:59:51;;;;;;;2.53;0.65;;;;;;;;;;5406892;26;20045;-78
2024/04/16 03:02:17;;;;;;;4.55;1.15;;;;;;;;;;5396456;26;20447;-78
2024/04/16 03:04:43;;;;;;;1.15;0.35;;;;;;;;;;5402663;26;19999;-78
2024/04/16 03:07:09;;;;;;;1.15;0.30;;;;;;;;;;5399188;26;20340;-78
2024/04/16 03:09:35;;;;;;;2.22;0.85;;;;;;;;;;5422066;26;20027;-77
2024/04/16 03:12:02;;;;;;;2.00;0.40;;;;;;;;;;5415396;26;20007;-76
2024/04/16 03:14:28;;;;;;;0.50;0.28;;;;;;;;;;5419253;26;20010;-77
2024/04/16 03:16:54;;;;;;;2.15;0.65;;;;;;;;;;5412817;26;20110;-78
2024/04/16 03:19:20;;;;;;;1.50;0.40;;;;;;;;;;5402552;26;20012;-77
2024/04/16 03:21:47;;;;;;;1.95;0.60;;;;;;;;;;5409384;26;20668;-78
2024/04/16 03:24:13;;;;;;;7.00;0.85;;;;;;;;;;5415795;26;20007;-79
2024/04/16 03:26:40;;;;;;;2.33;0.65;;;;;;;;;;5398931;26;20011;-78
2024/04/16 03:29:06;;;;;;;4.00;0.70;;;;;;;;;;5408080;26;20008;-77
2024/04/16 03:31:32;;;;;;;2.15;0.60;;;;;;;;;;5399660;26;20289;-78
2024/04/16 03:33:58;;;;;;;1.83;0.57;;;;;;;;;;5397527;26;20001;-78
2024/04/16 03:36:24;;;;;;;2.50;0.38;;;;;;;;;;5402114;26;20018;-77
2024/04/16 03:38:51;;;;;;;2.15;0.35;;;;;;;;;;5404954;26;20024;-77
2024/04/16 03:41:17;;;;;;;0.77;0.40;;;;;;;;;;5409793;26;20003;-78
2024/04/16 03:43:43;;;;;;;1.38;0.63;;;;;;;;;;5406908;26;20466;-78
2024/04/16 03:46:09;;;;;;;5.38;0.70;;;;;;;;;;5414321;26;19998;-79
2024/04/16 03:48:35;;;;;;;2.80;1.38;;;;;;;;;;5417377;26;20347;-77
2024/04/16 03:51:01;;;;;;;2.25;0.50;;;;;;;;;;5394729;26;19989;-78
2024/04/16 03:53:27;;;;;;;3.20;0.30;;;;;;;;;;5425294;26;19995;-79
2024/04/16 03:55:58;;;;;;;4.50;0.50;;;;;;;;;;5420002;26;20037;-78
2024/04/16 03:58:24;;;;;;;2.38;0.60;;;;;;;;;;5410720;26;20418;-78
2024/04/16 04:01:00;;;;;;;0.65;0.38;;;;;;;;;;5436485;26;19999;-78
2024/04/16 04:03:26;;;;;;;2.33;0.30;;;;;;;;;;5418265;26;19996;-79
2024/04/16 04:05:53;;;;;;;0.98;0.40;;;;;;;;;;5401442;26;20015;-78
2024/04/16 04:08:19;;;;;;;0.95;0.30;;;;;;;;;;5415156;26;20019;-76
2024/04/16 04:10:46;;;;;;;2.88;0.52;;;;;;;;;;5428285;26;19988;-78
2024/04/16 04:13:12;;;;;;;1.67;0.57;;;;;;;;;;5406985;26;19988;-77
2024/04/16 04:15:38;;;;;;;2.15;0.52;;;;;;;;;;5397806;26;20018;-77
2024/04/16 04:18:05;;;;;;;1.25;0.30;;;;;;;;;;5387642;26;20012;-78
2024/04/16 04:20:32;;;;;;;0.38;0.30;;;;;;;;;;5408234;26;20011;-77
2024/04/16 04:22:58;;;;;;;0.32;0.10;;;;;;;;;;5417306;26;20039;-79
2024/04/16 04:25:25;;;;;;;0.55;0.25;;;;;;;;;;5411166;26;20000;-79
2024/04/16 04:27:52;;;;;;;2.85;0.40;;;;;;;;;;5431280;26;20007;-79
2024/04/16 04:30:18;;;;;;;2.78;0.73;;;;;;;;;;5398385;26;19996;-77
2024/04/16 04:32:51;;;;;;;1.33;0.50;;;;;;;;;;5392300;26;20000;-78
2024/04/16 04:35:17;;;;;;;2.25;0.30;;;;;;;;;;5410385;26;19999;-79
2024/04/16 04:37:43;;;;;;;1.55;0.43;;;;;;;;;;5425832;26;20007;-78
2024/04/16 04:40:10;;;;;;;2.13;0.32;;;;;;;;;;5408378;26;19999;-78
2024/04/16 04:42:36;;;;;;;1.83;0.43;;;;;;;;;;5420443;26;20011;-78
2024/04/16 04:45:02;;;;;;;1.35;0.73;;;;;;;;;;5409229;26;20020;-77
2024/04/16 04:47:28;;;;;;;2.25;0.60;;;;;;;;;;5408407;26;20319;-78
2024/04/16 04:49:55;;;;;;;1.77;0.45;;;;;;;;;;5424412;26;20407;-79
2024/04/16 04:52:21;;;;;;;4.50;1.25;;;;;;;;;;5410214;26;20043;-78
2024/04/16 04:54:47;;;;;;;2.92;0.57;;;;;;;;;;5422508;26;20004;-77
2024/04/16 04:57:13;;;;;;;1.30;0.60;;;;;;;;;;5424089;26;20039;-78
2024/04/16 04:59:39;;;;;;;1.58;0.47;;;;;;;;;;5424895;26;20010;-78
2024/04/16 05:02:09;;;;;;;1.70;0.52;;;;;;;;;;5421718;26;20012;-77
2024/04/16 05:04:35;;;;;;;2.08;0.50;;;;;;;;;;5387076;26;20000;-77
2024/04/16 05:07:01;;;;;;;1.88;0.85;;;;;;;;;;5401115;26;20000;-79
2024/04/16 05:09:28;;;;;;;1.33;0.60;;;;;;;;;;5409373;26;20036;-78
2024/04/16 05:11:54;;;;;;;3.00;0.63;;;;;;;;;;5409756;26;19992;-78
2024/04/16 05:14:21;;;;;;;1.35;0.55;;;;;;;;;;5438451;26;20010;-77
2024/04/16 05:16:47;;;;;;;2.05;0.35;;;;;;;;;;5444831;26;19993;-78
2024/04/16 05:19:13;;;;;;;3.42;0.38;;;;;;;;;;5444841;26;19984;-77
2024/04/16 05:21:39;;;;;;;5.63;1.13;;;;;;;;;;5441628;26;20013;-78
2024/04/16 05:24:06;;;;;;;2.33;0.80;;;;;;;;;;5427979;26;20530;-78
2024/04/16 05:26:32;;;;;;;1.13;0.40;;;;;;;;;;5425216;26;20023;-78
2024/04/16 05:28:58;;;;;;;1.75;0.47;;;;;;;;;;5407778;26;20457;-78
2024/04/16 05:31:24;;;;;;;2.67;0.38;;;;;;;;;;5411538;26;20013;-77
2024/04/16 05:33:53;;;;;;;1.00;0.43;;;;;;;;;;5409803;26;20032;-78
2024/04/16 05:36:20;;;;;;;3.22;0.40;;;;;;;;;;5403834;26;20485;-79
2024/04/16 05:38:46;;;;;;;1.30;0.45;;;;;;;;;;5405256;26;20003;-77
2024/04/16 05:41:15;;;;;;;0.75;0.28;;;;;;;;;;5421533;26;20000;-77
2024/04/16 05:43:41;;;;;;;2.35;0.40;;;;;;;;;;5398609;26;20015;-78
2024/04/16 05:46:07;;;;;;;0.52;0.20;;;;;;;;;;5418056;26;20091;-77
2024/04/16 05:48:34;;;;;;;0.63;0.30;;;;;;;;;;5400062;26;20012;-78
2024/04/16 05:51:00;;;;;;;1.02;0.25;;;;;;;;;;5396744;26;20011;-78
2024/04/16 05:53:26;;;;;;;0.85;0.20;;;;;;;;;;5419978;26;20004;-78
2024/04/16 05:55:52;;;;;;;0.43;0.30;;;;;;;;;;5421783;26;20000;-78
2024/04/16 05:58:20;;;;;;;0.75;0.30;;;;;;;;;;5426843;26;19999;-77
2024/04/16 06:00:46;;;;;;;0.90;0.30;;;;;;;;;;5425641;26;20016;-77
2024/04/16 06:03:12;;;;;;;0.20;0.20;;;;;;;;;;5414187;26;20338;-78
2024/04/16 06:05:38;;;;;;;1.75;0.40;;;;;;;;;;5423912;26;20000;-78
2024/04/16 06:08:06;;;;;;;1.50;0.50;;;;;;;;;;5423946;26;20488;-77
2024/04/16 06:10:32;;;;;;;0.20;0.15;;;;;;;;;;5412031;26;20064;-77
2024/04/16 06:12:58;;;;;;;0.65;0.30;;;;;;;;;;5441082;26;20011;-77
2024/04/16 06:15:24;;;;;;;0.85;0.52;;;;;;;;;;5393144;26;20005;-77
2024/04/16 06:17:51;;;;;;;0.73;0.20;;;;;;;;;;5401835;26;20014;-78
2024/04/16 06:20:17;;;;;;;1.20;0.20;;;;;;;;;;5386992;26;20024;-78
2024/04/16 06:22:43;;;;;;;0.95;0.40;;;;;;;;;;5408641;26;19996;-78
2024/04/16 06:25:10;;;;;;;0.32;0.28;;;;;;;;;;5420991;26;20022;-78
2024/04/16 06:27:36;;;;;;;1.88;0.30;;;;;;;;;;5420062;26;20037;-78
2024/04/16 06:30:02;;;;;;;2.45;0.30;;;;;;;;;;5421691;26;20441;-78
2024/04/16 06:32:28;;;;;;;1.05;0.30;;;;;;;;;;5421133;26;19995;-78
2024/04/16 06:34:55;;;;;;;0.40;0.20;;;;;;;;;;5407261;26;20010;-77
2024/04/16 06:37:21;;;;;;;0.43;0.20;;;;;;;;;;5403370;26;20466;-79
2024/04/16 06:39:47;;;;;;;1.05;0.40;;;;;;;;;;5421168;26;20000;-78
2024/04/16 06:42:13;;;;;;;0.52;0.35;;;;;;;;;;5392490;26;20000;-78
2024/04/16 06:44:40;;;;;;;0.30;0.10;;;;;;;;;;5421494;26;20477;-77
2024/04/16 06:47:06;;;;;;;1.02;0.30;;;;;;;;;;5417635;26;20010;-78
2024/04/16 06:49:32;;;;;;;0.10;0.10;;;;;;;;;;5414540;26;20004;-78
2024/04/16 06:51:58;;;;;;;0.85;0.20;;;;;;;;;;5412820;26;20035;-77
2024/04/16 06:54:24;;;;;;;1.23;0.30;;;;;;;;;;5406941;26;20000;-77
2024/04/16 06:56:51;;;;;;;0.65;0.25;;;;;;;;;;5418698;26;19999;-78
2024/04/16 06:59:17;;;;;;;0.30;0.30;;;;;;;;;;5418451;26;20011;-77
2024/04/16 07:01:43;;;;;;;0.10;0.10;;;;;;;;;;5422135;26;19999;-78
2024/04/16 07:04:11;;;;;;;1.08;0.30;;;;;;;;;;5435734;26;20003;-77
2024/04/16 07:06:37;;;;;;;0.52;0.40;;;;;;;;;;5439538;26;19991;-78
2024/04/16 07:09:03;;;;;;;0.38;0.13;;;;;;;;;;5423651;26;20073;-78
2024/04/16 07:11:29;;;;;;;2.72;0.30;;;;;;;;;;5432969;26;20003;-79
2024/04/16 07:13:56;;;;;;;0.85;0.30;;;;;;;;;;5423623;26;19996;-78
2024/04/16 07:16:22;;;;;;;2.47;0.30;;;;;;;;;;5423844;26;20014;-78
2024/04/16 07:18:48;;;;;;;1.20;0.20;;;;;;;;;;5424134;26;20039;-78
2024/04/16 07:21:14;;;;;;;0.60;0.40;;;;;;;;;;5404713;26;20014;-78
2024/04/16 07:23:40;;;;;;;0.80;0.80;;;;;;;;;;5423516;26;20076;-77
2024/04/16 07:26:06;;;;;;;0.90;0.60;;;;;;;;;;5425340;26;20101;-77
2024/04/16 07:28:33;;;;;;;0.45;0.45;;;;;;;;;;5424950;26;19999;-76
2024/04/16 07:30:59;;;;;;;1.08;0.90;;;;;;;;;;5425615;26;20015;-78
2024/04/16 07:33:26;;;;;;;3.58;2.28;;;;;;;;;;5423609;26;20059;-78
2024/04/16 07:35:54;;;;;;;7.60;2.72;;;;;;;;;;5421166;26;20461;-78
2024/04/16 07:38:20;;;;;;;7.47;3.35;;;;;;;;;;5397066;26;20039;-77
2024/04/16 07:40:54;;;;;;;1.38;1.13;;;;;;;;;;5406579;26;20082;-78
2024/04/16 07:43:20;;;;;;;1.73;1.05;;;;;;;;;;5403911;26;20011;-78
2024/04/16 07:45:46;;;;;;;7.78;3.30;;;;;;;;;;5419462;26;19999;-79
2024/04/16 07:48:13;;;;;;;7.20;3.78;;;;;;;;;;5419535;26;20000;-78
2024/04/16 07:50:39;;;;;;;1.80;0.75;;;;;;;;;;5417971;26;20003;-78
2024/04/16 07:53:05;;;;;;;1.15;0.50;;;;;;;;;;5419139;26;20007;-78
2024/04/16 07:55:31;;;;;;;1.27;0.68;;;;;;;;;;5420733;26;20015;-79
2024/04/16 07:57:57;;;;;;;1.35;0.77;;;;;;;;;;5418242;26;19995;-78
2024/04/16 08:00:28;;;;;;;2.00;0.68;;;;;;;;;;5418622;26;20007;-78
2024/04/16 08:02:57;;;;;;;2.58;1.08;;;;;;;;;;5417734;26;20007;-78
2024/04/16 08:05:24;;;;;;;1.65;1.05;;;;;;;;;;5404715;26;20043;-77
2024/04/16 08:07:50;;;;;;;2.53;0.95;;;;;;;;;;5419439;26;20076;-78
2024/04/16 08:10:16;;;;;;;2.92;0.60;;;;;;;;;;5402372;26;20007;-78
2024/04/16 08:12:42;;;;;;;2.35;0.60;;;;;;;;;;5422320;26;20004;-78
2024/04/16 08:15:09;;;;;;;2.13;0.50;;;;;;;;;;5437229;26;19995;-78
2024/04/16 08:17:35;;;;;;;1.25;0.50;;;;;;;;;;5423606;26;20526;-78
2024/04/16 08:20:01;;;;;;;0.50;0.50;;;;;;;;;;5419180;26;19999;-78
2024/04/16 08:22:28;;;;;;;2.40;0.90;;;;;;;;;;5419611;26;20010;-78
2024/04/16 08:24:54;;;;;;;0.50;0.50;;;;;;;;;;5418783;26;20006;-78
2024/04/16 08:27:22;;;;;;;0.60;0.60;;;;;;;;;;5419215;26;20038;-78
2024/04/16 08:29:51;;;;;;;1.85;0.60;;;;;;;;;;5420915;26;20000;-78
2024/04/16 08:32:21;;;;;;;1.67;0.70;;;;;;;;;;5402347;26;20000;-78
2024/04/16 08:34:47;;;;;;;0.80;0.70;;;;;;;;;;5403793;26;19999;-78
2024/04/16 08:37:13;;;;;;;1.55;0.85;;;;;;;;;;5416194;26;20007;-79
2024/04/16 08:39:40;;;;;;;2.67;0.95;;;;;;;;;;5386908;26;20011;-79
2024/04/16 08:42:08;;;;;;;0.95;0.68;;;;;;;;;;5418887;26;20000;-78
2024/04/16 08:44:34;;;;;;;0.88;0.52;;;;;;;;;;5418504;26;20068;-77
2024/04/16 08:47:01;;;;;;;1.95;0.50;;;;;;;;;;5418784;26;19996;-79
2024/04/16 08:49:31;;;;;;;0.47;0.47;;;;;;;;;;5402527;26;20023;-78
2024/04/16 08:51:58;;;;;;;1.45;0.55;;;;;;;;;;5409631;26;20010;-78
2024/04/16 08:54:25;;;;;;;0.57;0.47;;;;;;;;;;5399068;26;20001;-78
2024/04/16 08:56:51;;;;;;;1.00;0.50;;;;;;;;;;5396362;26;20474;-78
2024/04/16 08:59:18;;;;;;;1.25;0.52;;;;;;;;;;5399761;26;20034;-77
2024/04/16 09:01:48;;;;;;;1.95;0.52;;;;;;;;;;5434788;26;19984;-78
2024/04/16 09:04:18;;;;;;;0.88;0.68;;;;;;;;;;5421155;26;20010;-77
2024/04/16 09:06:51;;;;;;;0.68;0.30;;;;;;;;;;5433945;26;20006;-77
2024/04/16 09:09:18;;;;;;;2.25;0.50;;;;;;;;;;5420142;26;20004;-77
2024/04/16 09:11:45;;;;;;;0.75;0.30;;;;;;;;;;5421549;26;20049;-78
2024/04/16 09:14:11;;;;;;;3.28;0.60;;;;;;;;;;5426112;26;20046;-77
2024/04/16 09:16:38;;;;;;;3.05;0.60;;;;;;;;;;5386207;26;19992;-78
2024/04/16 09:19:13;;;;;;;1.73;0.50;;;;;;;;;;5399622;26;20031;-78
2024/04/16 09:21:39;;;;;;;2.28;0.63;;;;;;;;;;5400684;26;20325;-78
2024/04/16 09:24:06;;;;;;;2.10;0.40;;;;;;;;;;5404574;26;20031;-78
2024/04/16 09:26:36;;;;;;;1.27;0.50;;;;;;;;;;5419921;26;20417;-77
2024/04/16 09:29:03;;;;;;;2.33;0.70;;;;;;;;;;5421058;26;20014;-78
2024/04/16 09:31:29;;;;;;;2.67;0.63;;;;;;;;;;5418680;26;20004;-78
2024/04/16 09:34:08;;;;;;;1.52;0.60;;;;;;;;;;5420163;26;20005;-77
2024/04/16 09:36:35;;;;;;;2.30;0.50;;;;;;;;;;5399146;26;20555;-78
2024/04/16 09:39:02;;;;;;;2.30;0.70;;;;;;;;;;5395777;26;20003;-78
2024/04/16 09:41:28;;;;;;;3.10;0.52;;;;;;;;;;5405416;26;20011;-78
2024/04/16 09:43:55;;;;;;;3.22;0.90;;;;;;;;;;5420482;26;20007;-78
2024/04/16 09:46:22;;;;;;;4.03;0.80;;;;;;;;;;5416307;26;20015;-78
2024/04/16 09:48:48;;;;;;;3.58;0.60;;;;;;;;;;5399872;26;20004;-78
2024/04/16 09:51:14;;;;;;;4.35;0.77;;;;;;;;;;5401384;26;20000;-78
2024/04/16 09:53:43;;;;;;;2.17;0.70;;;;;;;;;;5420697;26;20454;-78
2024/04/16 09:56:10;;;;;;;4.38;0.98;;;;;;;;;;5419384;26;20059;-77
2024/04/16 09:58:37;;;;;;;2.88;1.00;;;;;;;;;;5391229;26;20450;-79
2024/04/16 10:01:04;;;;;;;3.30;1.05;;;;;;;;;;5421217;26;19996;-78
2024/04/16 10:03:30;;;;;;;4.28;0.80;;;;;;;;;;5419629;26;20018;-79
2024/04/16 10:05:56;;;;;;;3.63;1.58;;;;;;;;;;5421868;26;20400;-78
2024/04/16 10:08:26;;;;;;;1.92;1.00;;;;;;;;;;5403228;26;20016;-78
2024/04/16 10:10:57;;;;;;;6.20;1.02;;;;;;;;;;5410798;26;20000;-77
2024/04/16 10:13:25;;;;;;;3.25;1.52;;;;;;;;;;5433478;26;19996;-79
2024/04/16 10:15:51;;;;;;;3.85;0.90;;;;;;;;;;5419819;26;19995;-77
2024/04/16 10:18:17;;;;;;;2.47;0.88;;;;;;;;;;5410505;26;20007;-78
2024/04/16 10:20:56;;;;;;;3.35;1.00;;;;;;;;;;5414389;26;20000;-78
2024/04/16 10:23:22;;;;;;;5.45;1.10;;;;;;;;;;5402298;26;19992;-78
2024/04/16 10:25:49;;;;;;;4.00;0.80;;;;;;;;;;5435174;26;19999;-78
2024/04/16 10:28:24;;;;;;;2.70;0.98;;;;;;;;;;5433358;26;20003;-78
2024/04/16 10:30:59;;;;;;;2.90;0.70;;;;;;;;;;5431974;26;20413;-77
2024/04/16 10:33:25;;;;;;;3.38;0.70;;;;;;;;;;5414047;26;20126;-77
2024/04/16 10:35:53;;;;;;;2.40;0.73;;;;;;;;;;5423616;26;20081;-78
2024/04/16 10:38:19;;;;;;;4.05;1.02;;;;;;;;;;5438118;26;20143;-77
2024/04/16 10:40:55;;;;;;;2.28;1.42;;;;;;;;;;5403187;26;20004;-77
2024/04/16 10:43:25;;;;;;;2.45;0.90;;;;;;;;;;5418755;26;20007;-78
2024/04/16 10:45:51;;;;;;;2.65;0.93;;;;;;;;;;5397486;26;20028;-78
2024/04/16 10:48:18;;;;;;;4.07;0.93;;;;;;;;;;5391940;26;20011;-77
2024/04/16 10:50:45;;;;;;;5.53;1.10;;;;;;;;;;5398096;26;20016;-78
2024/04/16 10:53:14;;;;;;;3.75;1.33;;;;;;;;;;5416656;26;19995;-78
2024/04/16 10:55:41;;;;;;;4.70;0.65;;;;;;;;;;5415947;26;20016;-78
2024/04/16 10:58:11;;;;;;;3.17;0.70;;;;;;;;;;5404923;26;20002;-78
2024/04/16 11:00:37;;;;;;;2.97;0.77;;;;;;;;;;5416143;26;20015;-77
2024/04/16 11:03:03;;;;;;;3.22;0.90;;;;;;;;;;5417996;26;20621;-77
2024/04/16 11:05:29;;;;;;;1.98;0.90;;;;;;;;;;5430631;26;19996;-79
2024/04/16 11:07:56;;;;;;;1.52;0.80;;;;;;;;;;5423128;26;20114;-78
2024/04/16 11:10:22;;;;;;;2.80;0.77;;;;;;;;;;5402482;26;20011;-77
2024/04/16 11:12:48;;;;;;;4.22;0.70;;;;;;;;;;5406847;26;20430;-78
2024/04/16 11:15:14;;;;;;;3.63;1.00;;;;;;;;;;5419347;26;20003;-78
2024/04/16 11:17:41;;;;;;;3.63;0.80;;;;;;;;;;5415655;26;19996;-77
2024/04/16 11:20:08;;;;;;;3.00;0.85;;;;;;;;;;5419646;26;20053;-78
2024/04/16 11:22:34;;;;;;;1.27;0.70;;;;;;;;;;5418056;26;20011;-78
2024/04/16 11:25:01;;;;;;;3.63;0.82;;;;;;;;;;5409143;26;20000;-78
2024/04/16 11:27:28;;;;;;;1.65;0.60;;;;;;;;;;5414720;26;20030;-77
2024/04/16 11:29:55;;;;;;;4.70;1.00;;;;;;;;;;5408664;26;19999;-77
2024/04/16 11:32:22;;;;;;;2.20;0.85;;;;;;;;;;5390274;26;20000;-77
2024/04/16 11:34:48;;;;;;;2.10;0.90;;;;;;;;;;5394917;26;20456;-78
2024/04/16 11:37:15;;;;;;;1.95;0.85;;;;;;;;;;5419329;26;20100;-77
2024/04/16 11:39:43;;;;;;;1.63;0.88;;;;;;;;;;5418709;26;19992;-77
2024/04/16 11:42:10;;;;;;;2.40;0.70;;;;;;;;;;5388518;26;20007;-76
2024/04/16 11:44:38;;;;;;;3.35;1.05;;;;;;;;;;5424773;26;20025;-78
2024/04/16 11:47:05;;;;;;;4.88;1.20;;;;;;;;;;5420112;26;20008;-78
2024/04/16 11:49:32;;;;;;;2.42;0.82;;;;;;;;;;5398964;26;20000;-78
2024/04/16 11:52:01;;;;;;;4.38;1.23;;;;;;;;;;5393613;26;20000;-78
2024/04/16 11:54:28;;;;;;;5.25;1.10;;;;;;;;;;5398671;26;20044;-77
2024/04/16 11:56:54;;;;;;;2.20;0.65;;;;;;;;;;5396052;26;20039;-78
2024/04/16 11:59:20;;;;;;;2.72;1.02;;;;;;;;;;5428988;26;19991;-78
2024/04/16 12:01:46;;;;;;;1.30;0.75;;;;;;;;;;5429699;26;19988;-77
2024/04/16 12:04:13;;;;;;;5.22;0.70;;;;;;;;;;5421899;26;19991;-78
2024/04/16 12:06:39;;;;;;;4.03;0.98;;;;;;;;;;5406214;26;20116;-78
2024/04/16 12:09:05;;;;;;;2.40;0.90;;;;;;;;;;5417380;26;19984;-77
2024/04/16 12:11:31;;;;;;;2.17;0.93;;;;;;;;;;5429775;26;20384;-78
2024/04/16 12:13:58;;;;;;;1.83;0.82;;;;;;;;;;5415123;26;20049;-79
2024/04/16 12:16:25;;;;;;;3.35;1.20;;;;;;;;;;5405547;26;20015;-78
2024/04/16 12:18:52;;;;;;;7.00;1.02;;;;;;;;;;5409254;26;20107;-77
2024/04/16 12:21:18;;;;;;;2.13;0.80;;;;;;;;;;5419198;26;20071;-77
2024/04/16 12:23:47;;;;;;;7.07;0.88;;;;;;;;;;5381518;26;20019;-78
2024/04/16 12:26:13;;;;;;;3.17;0.93;;;;;;;;;;5411911;26;20018;-78
2024/04/16 12:28:39;;;;;;;2.47;0.80;;;;;;;;;;5406267;26;20361;-78
2024/04/16 12:31:05;;;;;;;3.83;1.20;;;;;;;;;;5417242;26;19995;-78
2024/04/16 12:33:31;;;;;;;2.90;1.00;;;;;;;;;;5402432;26;20307;-77
2024/04/16 12:35:58;;;;;;;2.20;1.08;;;;;;;;;;5416807;26;19995;-78
2024/04/16 12:38:24;;;;;;;5.25;1.02;;;;;;;;;;5402265;26;20077;-78
2024/04/16 12:40:50;;;;;;;3.33;0.82;;;;;;;;;;5418301;26;20003;-78
2024/04/16 12:43:18;;;;;;;8.05;1.00;;;;;;;;;;5403451;26;20035;-77
2024/04/16 12:45:44;;;;;;;1.02;0.80;;;;;;;;;;5406149;26;20003;-77
2024/04/16 12:48:18;;;;;;;9.23;0.90;;;;;;;;;;5420887;26;20000;-78
2024/04/16 12:50:44;;;;;;;5.13;1.15;;;;;;;;;;5421873;26;20006;-77
2024/04/16 12:53:10;;;;;;;3.15;0.60;;;;;;;;;;5408892;26;20532;-78
2024/04/16 12:55:36;;;;;;;3.58;0.57;;;;;;;;;;5406468;26;19995;-78
2024/04/16 12:58:03;;;;;;;2.17;0.70;;;;;;;;;;5420446;26;19999;-78
2024/04/16 13:00:29;;;;;;;3.97;1.13;;;;;;;;;;5413828;26;20018;-78
2024/04/16 13:02:55;;;;;;;1.88;0.80;;;;;;;;;;5385296;26;20000;-77
2024/04/16 13:05:22;;;;;;;1.50;0.68;;;;;;;;;;5421913;26;20057;-77
2024/04/16 13:07:48;;;;;;;1.27;0.57;;;;;;;;;;5422927;26;19996;-78
2024/04/16 13:10:15;;;;;;;1.42;0.50;;;;;;;;;;5412446;26;20036;-78
2024/04/16 13:12:41;;;;;;;4.00;0.73;;;;;;;;;;5419273;26;20448;-77
2024/04/16 13:15:07;;;;;;;3.70;1.02;;;;;;;;;;5420226;26;20103;-78
2024/04/16 13:17:34;;;;;;;2.63;1.00;;;;;;;;;;5418163;26;19995;-78
2024/04/16 13:20:00;;;;;;;1.55;0.55;;;;;;;;;;5417991;26;20373;-77
2024/04/16 13:22:26;;;;;;;3.78;0.88;;;;;;;;;;5410103;26;20350;-77
2024/04/16 13:24:53;;;;;;;1.92;0.52;;;;;;;;;;5392396;26;20000;-78
2024/04/16 13:27:19;;;;;;;4.93;1.10;;;;;;;;;;5423245;26;20000;-77
2024/04/16 13:29:45;;;;;;;3.47;0.80;;;;;;;;;;5424587;26;20003;-77
2024/04/16 13:32:11;;;;;;;2.85;0.77;;;;;;;;;;5398502;26;20011;-77
2024/04/16 13:34:37;;;;;;;1.02;0.63;;;;;;;;;;5405253;26;20076;-77
2024/04/16 13:37:03;;;;;;;1.48;0.60;;;;;;;;;;5419132;26;19995;-78
2024/04/16 13:39:29;;;;;;;6.10;0.93;;;;;;;;;;5417892;26;19995;-78
2024/04/16 13:41:56;;;;;;;2.50;0.57;;;;;;;;;;5405669;26;20311;-78
2024/04/16 13:44:22;;;;;;;1.55;0.70;;;;;;;;;;5418752;26;20014;-78
2024/04/16 13:46:48;;;;;;;3.33;0.80;;;;;;;;;;5394635;26;20077;-78
2024/04/16 13:49:14;;;;;;;1.08;0.70;;;;;;;;;;5413489;26;19999;-77
2024/04/16 13:51:40;;;;;;;4.43;0.80;;;;;;;;;;5412430;26;20069;-78
2024/04/16 13:54:06;;;;;;;3.83;0.80;;;;;;;;;;5421284;26;20004;-77
2024/04/16 13:56:33;;;;;;;5.95;0.68;;;;;;;;;;5406492;26;20026;-78
2024/04/16 13:59:00;;;;;;;5.65;0.70;;;;;;;;;;5394375;26;20459;-79
2024/04/16 14:01:26;;;;;;;1.52;0.80;;;;;;;;;;5389293;26;19996;-78
2024/04/16 14:03:53;;;;;;;10.27;0.82;;;;;;;;;;5418088;26;20051;-77
2024/04/16 14:06:19;;;;;;;2.92;0.40;;;;;;;;;;5421093;26;19991;-76
2024/04/16 14:08:45;;;;;;;1.52;0.55;;;;;;;;;;5433117;26;19995;-77
2024/04/16 14:11:11;;;;;;;3.72;0.68;;;;;;;;;;5435215;26;20000;-77
2024/04/16 14:13:37;;;;;;;1.85;0.63;;;;;;;;;;5436652;26;20002;-78
2024/04/16 14:16:04;;;;;;;2.28;0.57;;;;;;;;;;5409093;26;20020;-78
2024/04/16 14:18:30;;;;;;;2.15;0.52;;;;;;;;;;5433211;26;19992;-77
2024/04/16 14:20:56;;;;;;;1.92;0.77;;;;;;;;;;5420087;26;19991;-77
2024/04/16 14:23:22;;;;;;;4.38;0.60;;;;;;;;;;5410527;26;20338;-77
2024/04/16 14:25:48;;;;;;;1.70;0.60;;;;;;;;;;5419303;26;20349;-78
2024/04/16 14:28:14;;;;;;;0.98;0.63;;;;;;;;;;5420026;26;20003;-79
2024/04/16 14:30:41;;;;;;;2.50;0.80;;;;;;;;;;5421140;26;20076;-78
2024/04/16 14:33:08;;;;;;;3.97;0.73;;;;;;;;;;5406659;26;20027;-79
2024/04/16 14:35:34;;;;;;;1.65;0.80;;;;;;;;;;5389740;26;20015;-79
2024/04/16 14:38:00;;;;;;;2.30;0.50;;;;;;;;;;5408207;26;20011;-77
2024/04/16 14:40:26;;;;;;;3.13;0.75;;;;;;;;;;5415579;26;20338;-76